createdAt,value
2019-05-19T00:01:31.967Z,101134.12
2019-05-19T00:04:01.657Z,101135.13
2019-05-19T00:06:31.802Z,101135.61
2019-05-19T00:09:02.044Z,101129.02
2019-05-19T00:11:35.265Z,101132.13
2019-05-19T00:14:05.390Z,101129.59
2019-05-19T00:16:34.929Z,101130.11
2019-05-19T00:19:04.709Z,101131.44
2019-05-19T00:21:34.594Z,101131.03
2019-05-19T00:24:04.349Z,101129.19
2019-05-19T00:26:34.299Z,101129.14
2019-05-19T00:29:04.169Z,101130.03
2019-05-19T00:31:34.486Z,101134.45
2019-05-19T00:34:04.271Z,101126.53
2019-05-19T00:36:36.038Z,101130.19
2019-05-19T00:39:07.020Z,101127.63
2019-05-19T00:41:38.108Z,101123.97
2019-05-19T00:44:07.973Z,101127.42
2019-05-19T00:46:37.819Z,101133.92
2019-05-19T00:49:08.083Z,101134.33
2019-05-19T00:51:39.343Z,101127.22
2019-05-19T00:54:10.070Z,101123.20
2019-05-19T00:56:40.588Z,101126.77
2019-05-19T00:59:10.721Z,101120.98
2019-05-19T01:01:42.652Z,101125.48
2019-05-19T01:04:12.563Z,101124.16
2019-05-19T01:06:42.320Z,101123.73
2019-05-19T01:09:12.174Z,101121.64
2019-05-19T01:11:44.360Z,101123.48
2019-05-19T01:14:15.445Z,101126.66
2019-05-19T01:16:46.534Z,101116.18
2019-05-19T01:19:17.166Z,101126.38
2019-05-19T01:21:48.460Z,101118.06
2019-05-19T01:24:22.213Z,101122.48
2019-05-19T01:26:51.716Z,101116.33
2019-05-19T01:29:21.852Z,101125.97
2019-05-19T01:31:52.736Z,101123.73
2019-05-19T01:34:22.639Z,101121.55
2019-05-19T01:36:52.485Z,101128.70
2019-05-19T01:39:23.258Z,101122.59
2019-05-19T01:41:52.756Z,101125.31
2019-05-19T01:44:22.483Z,101123.55
2019-05-19T01:46:52.332Z,101125.35
2019-05-19T01:49:22.134Z,101132.45
2019-05-19T01:51:51.927Z,101125.42
2019-05-19T01:54:26.907Z,101121.89
2019-05-19T01:56:56.398Z,101126.34
2019-05-19T01:59:26.290Z,101121.08
2019-05-19T02:01:56.384Z,101127.27
2019-05-19T02:04:27.846Z,101126.38
2019-05-19T02:07:01.576Z,101125.53
2019-05-19T02:09:32.414Z,101128.63
2019-05-19T02:12:07.922Z,101129.54
2019-05-19T02:14:38.221Z,101125.53
2019-05-19T02:17:07.891Z,101136.13
2019-05-19T02:19:39.137Z,101130.02
2019-05-19T02:22:09.935Z,101133.55
2019-05-19T02:24:41.123Z,101127.88
2019-05-19T02:27:10.762Z,101133.20
2019-05-19T02:29:40.528Z,101131.03
2019-05-19T02:32:10.750Z,101130.19
2019-05-19T02:34:41.389Z,101133.72
2019-05-19T02:37:12.006Z,101129.34
2019-05-19T02:39:41.545Z,101123.60
2019-05-19T02:42:13.054Z,101137.72
2019-05-19T02:44:43.069Z,101133.34
2019-05-19T02:47:15.184Z,101140.39
2019-05-19T02:49:49.086Z,101136.91
2019-05-19T02:52:20.153Z,101139.98
2019-05-19T02:54:50.307Z,101131.23
2019-05-19T02:57:21.394Z,101130.82
2019-05-19T02:59:51.914Z,101127.73
2019-05-19T03:02:22.154Z,101132.17
2019-05-19T03:04:53.818Z,101124.23
2019-05-19T03:07:23.951Z,101123.33
2019-05-19T03:09:53.493Z,101129.50
2019-05-19T03:12:23.332Z,101124.23
2019-05-19T03:14:52.987Z,101132.20
2019-05-19T03:17:22.793Z,101121.66
2019-05-19T03:19:53.191Z,101127.89
2019-05-19T03:22:24.472Z,101135.83
2019-05-19T03:24:54.287Z,101125.24
2019-05-19T03:27:24.238Z,101118.63
2019-05-19T03:29:58.279Z,101129.69
2019-05-19T03:32:33.644Z,101134.50
2019-05-19T03:35:04.094Z,101138.87
2019-05-19T03:37:33.773Z,101135.80
2019-05-19T03:40:06.461Z,101136.61
2019-05-19T03:42:36.813Z,101134.85
2019-05-19T03:45:07.517Z,101133.53
2019-05-19T03:47:37.596Z,101134.89
2019-05-19T03:50:08.350Z,101138.41
2019-05-19T03:52:38.415Z,101134.41
2019-05-19T03:55:08.559Z,101137.53
2019-05-19T03:57:40.466Z,101140.61
2019-05-19T04:00:11.103Z,101144.59
2019-05-19T04:02:42.519Z,101140.14
2019-05-19T04:05:12.449Z,101144.91
2019-05-19T04:07:42.750Z,101136.45
2019-05-19T04:10:13.098Z,101137.34
2019-05-19T04:12:42.783Z,101132.93
2019-05-19T04:15:12.836Z,101128.45
2019-05-19T04:17:44.352Z,101134.56
2019-05-19T04:20:14.567Z,101129.67
2019-05-19T04:22:44.452Z,101135.31
2019-05-19T04:25:21.191Z,101140.50
2019-05-19T04:27:51.198Z,101137.34
2019-05-19T04:30:22.335Z,101133.30
2019-05-19T04:32:52.239Z,101130.13
2019-05-19T04:35:22.415Z,101127.89
2019-05-19T04:37:52.654Z,101127.81
2019-05-19T04:40:23.567Z,101132.27
2019-05-19T04:42:53.901Z,101130.91
2019-05-19T04:45:23.888Z,101129.58
2019-05-19T04:47:53.680Z,101129.47
2019-05-19T04:50:23.319Z,101134.72
2019-05-19T04:52:53.057Z,101132.40
2019-05-19T04:55:22.865Z,101130.99
2019-05-19T04:57:52.542Z,101132.72
2019-05-19T05:00:22.395Z,101131.80
2019-05-19T05:02:52.264Z,101131.67
2019-05-19T05:05:22.327Z,101130.27
2019-05-19T05:07:52.715Z,101124.44
2019-05-19T05:10:23.602Z,101122.14
2019-05-19T05:12:53.451Z,101130.41
2019-05-19T05:15:24.437Z,101125.91
2019-05-19T05:17:54.041Z,101132.03
2019-05-19T05:20:24.735Z,101121.83
2019-05-19T05:22:55.021Z,101121.33
2019-05-19T05:25:24.633Z,101115.90
2019-05-19T05:27:54.040Z,101121.64
2019-05-19T05:30:24.107Z,101124.16
2019-05-19T05:32:53.837Z,101124.55
2019-05-19T05:35:23.747Z,101125.24
2019-05-19T05:37:59.559Z,101107.61
2019-05-19T05:40:31.568Z,101117.04
2019-05-19T05:43:01.279Z,101120.44
2019-05-19T05:45:32.255Z,101119.44
2019-05-19T05:48:03.763Z,101118.89
2019-05-19T05:50:35.100Z,101122.33
2019-05-19T05:53:05.214Z,101124.48
2019-05-19T05:55:36.147Z,101128.81
2019-05-19T05:58:07.955Z,101126.59
2019-05-19T06:00:37.918Z,101123.39
2019-05-19T06:03:09.372Z,101111.84
2019-05-19T06:05:39.440Z,101110.89
2019-05-19T06:08:09.275Z,101110.41
2019-05-19T06:10:38.881Z,101105.92
2019-05-19T06:13:10.184Z,101100.11
2019-05-19T06:15:41.223Z,101110.63
2019-05-19T06:18:11.295Z,101114.05
2019-05-19T06:20:48.246Z,101119.23
2019-05-19T06:23:18.053Z,101119.05
2019-05-19T06:25:48.343Z,101117.16
2019-05-19T06:28:19.565Z,101109.64
2019-05-19T06:30:50.467Z,101115.17
2019-05-19T06:33:20.766Z,101122.02
2019-05-19T06:35:52.576Z,101121.95
2019-05-19T06:38:22.348Z,101131.59
2019-05-19T06:40:52.201Z,101128.73
2019-05-19T06:43:22.441Z,101134.38
2019-05-19T06:45:53.752Z,101133.81
2019-05-19T06:48:24.843Z,101137.93
2019-05-19T06:50:55.709Z,101145.27
2019-05-19T06:53:25.435Z,101152.56
2019-05-19T06:55:56.441Z,101147.89
2019-05-19T06:58:28.435Z,101150.73
2019-05-19T07:00:59.341Z,101148.14
2019-05-19T07:03:29.209Z,101147.98
2019-05-19T07:05:59.495Z,101146.00
2019-05-19T07:08:33.877Z,101148.59
2019-05-19T07:11:05.330Z,101146.83
2019-05-19T07:13:35.326Z,101143.14
2019-05-19T07:16:05.179Z,101146.77
2019-05-19T07:18:35.063Z,101141.34
2019-05-19T07:21:05.360Z,101143.66
2019-05-19T07:23:35.987Z,101142.42
2019-05-19T07:26:07.017Z,101145.14
2019-05-19T07:28:37.859Z,101148.63
2019-05-19T07:31:07.700Z,101145.60
2019-05-19T07:33:38.864Z,101146.25
2019-05-19T07:36:09.028Z,101046.86
2019-05-19T07:38:39.061Z,101154.33
2019-05-19T07:41:10.519Z,101150.59
2019-05-19T07:43:41.394Z,101148.52
2019-05-19T07:46:16.326Z,101152.94
2019-05-19T07:48:46.167Z,101154.25
2019-05-19T07:51:15.837Z,101152.42
2019-05-19T07:53:46.892Z,101155.80
2019-05-19T07:56:18.092Z,101156.41
2019-05-19T07:58:47.924Z,101159.68
2019-05-19T08:01:17.989Z,101163.02
2019-05-19T08:03:47.670Z,101168.43
2019-05-19T08:06:18.508Z,101164.75
2019-05-19T08:08:48.979Z,101158.98
2019-05-19T08:11:19.181Z,101157.77
2019-05-19T08:13:50.033Z,101163.19
2019-05-19T08:16:21.944Z,101160.97
2019-05-19T08:18:53.837Z,101163.95
2019-05-19T08:21:24.930Z,101157.72
2019-05-19T08:24:00.694Z,101163.42
2019-05-19T08:26:29.021Z,101156.68
2019-05-19T08:29:01.142Z,101145.25
2019-05-19T08:31:33.062Z,101147.90
2019-05-19T08:34:03.270Z,101147.72
2019-05-19T08:36:34.065Z,101147.02
2019-05-19T08:39:06.575Z,101153.41
2019-05-19T08:41:37.497Z,101161.30
2019-05-19T08:44:08.152Z,101164.55
2019-05-19T08:46:38.358Z,101152.43
2019-05-19T08:49:08.973Z,101155.26
2019-05-19T08:51:39.289Z,101151.39
2019-05-19T08:54:15.166Z,101154.77
2019-05-19T08:56:41.243Z,101151.89
2019-05-19T08:59:11.278Z,101154.88
2019-05-19T09:01:42.899Z,101157.22
2019-05-19T09:04:14.410Z,101156.84
2019-05-19T09:06:46.434Z,101151.48
2019-05-19T09:09:17.282Z,101048.05
2019-05-19T09:11:48.034Z,101158.70
2019-05-19T09:14:18.138Z,101156.41
2019-05-19T09:16:48.541Z,101150.25
2019-05-19T09:19:18.461Z,101146.73
2019-05-19T09:21:50.086Z,101152.80
2019-05-19T09:24:30.238Z,101145.55
2019-05-19T09:26:58.361Z,101151.97
2019-05-19T09:29:29.633Z,101141.56
2019-05-19T09:32:02.617Z,101142.42
2019-05-19T09:34:33.158Z,101136.34
2019-05-19T09:37:05.594Z,101128.30
2019-05-19T09:39:36.328Z,101132.77
2019-05-19T09:42:08.569Z,101128.09
2019-05-19T09:44:41.186Z,101127.02
2019-05-19T09:47:11.459Z,101132.67
2019-05-19T09:49:41.353Z,101134.14
2019-05-19T09:52:11.088Z,101123.00
2019-05-19T09:54:45.287Z,101121.82
2019-05-19T09:57:13.331Z,101122.47
2019-05-19T09:59:43.648Z,101128.45
2019-05-19T10:02:15.099Z,101126.77
2019-05-19T10:04:45.609Z,101134.80
2019-05-19T10:07:16.599Z,101125.08
2019-05-19T10:10:04.106Z,101124.55
2019-05-19T10:12:33.774Z,101121.42
2019-05-19T10:15:04.226Z,101130.83
2019-05-19T10:17:34.306Z,101138.87
2019-05-19T10:20:04.728Z,101134.78
2019-05-19T10:22:36.011Z,101135.97
2019-05-19T10:25:20.963Z,101138.03
2019-05-19T10:27:39.637Z,101142.91
2019-05-19T10:30:10.514Z,101136.64
2019-05-19T10:32:43.939Z,101133.55
2019-05-19T10:35:14.184Z,101134.27
2019-05-19T10:37:45.786Z,101135.27
2019-05-19T10:40:15.654Z,101129.44
2019-05-19T10:42:48.675Z,101129.19
2019-05-19T10:45:18.782Z,101126.53
2019-05-19T10:47:48.443Z,101126.59
2019-05-19T10:50:18.669Z,101123.43
2019-05-19T10:52:49.221Z,101120.03
2019-05-19T10:55:19.283Z,101123.80
2019-05-19T10:57:50.232Z,101119.05
2019-05-19T11:00:20.831Z,101120.80
2019-05-19T11:02:50.902Z,101113.66
2019-05-19T11:05:23.050Z,101116.72
2019-05-19T11:07:54.049Z,101112.95
2019-05-19T11:10:24.593Z,101105.43
2019-05-19T11:12:54.879Z,101104.40
2019-05-19T11:15:26.306Z,101107.30
2019-05-19T11:17:56.978Z,101111.47
2019-05-19T11:20:27.518Z,101106.81
2019-05-19T11:22:57.673Z,101107.66
2019-05-19T11:25:33.890Z,101111.13
2019-05-19T11:27:59.068Z,101111.90
2019-05-19T11:30:29.086Z,101111.25
2019-05-19T11:32:59.023Z,101113.32
2019-05-19T11:35:28.892Z,101109.61
2019-05-19T11:37:58.903Z,101108.83
2019-05-19T11:40:28.534Z,101109.49
2019-05-19T11:42:58.517Z,101114.59
2019-05-19T11:45:28.137Z,101116.73
2019-05-19T11:47:58.257Z,101118.11
2019-05-19T11:50:28.084Z,101089.83
2019-05-19T11:52:57.745Z,101105.22
2019-05-19T11:55:27.629Z,101103.95
2019-05-19T11:57:58.053Z,101105.61
2019-05-19T12:00:27.753Z,101096.90
2019-05-19T12:02:57.743Z,101092.20
2019-05-19T12:05:27.812Z,101093.67
2019-05-19T12:07:57.721Z,101099.17
2019-05-19T12:10:28.530Z,101092.52
2019-05-19T12:12:58.714Z,101086.18
2019-05-19T12:15:28.765Z,101080.25
2019-05-19T12:17:58.788Z,101079.59
2019-05-19T12:20:28.441Z,101079.06
2019-05-19T12:22:58.100Z,101068.33
2019-05-19T12:25:27.644Z,101064.55
2019-05-19T12:27:57.309Z,101069.33
2019-05-19T12:30:27.053Z,101069.19
2019-05-19T12:32:59.306Z,101066.78
2019-05-19T12:35:28.588Z,100969.33
2019-05-19T12:37:58.494Z,101069.26
2019-05-19T12:40:28.421Z,101076.05
2019-05-19T12:42:58.000Z,101071.00
2019-05-19T12:45:28.113Z,101071.42
2019-05-19T12:47:57.736Z,101067.72
2019-05-19T12:50:27.440Z,101072.80
2019-05-19T12:52:57.461Z,101069.55
2019-05-19T12:55:26.982Z,101060.94
2019-05-19T12:57:56.714Z,101063.31
2019-05-19T13:00:29.528Z,101059.67
2019-05-19T13:03:00.022Z,101058.97
2019-05-19T13:05:29.795Z,101056.20
2019-05-19T13:07:59.899Z,101059.30
2019-05-19T13:10:29.481Z,101048.27
2019-05-19T13:12:59.096Z,101044.17
2019-05-19T13:15:28.943Z,101039.27
2019-05-19T13:17:58.886Z,101037.80
2019-05-19T13:20:28.495Z,101041.94
2019-05-19T13:22:58.157Z,101040.92
2019-05-19T13:27:56.722Z,101027.16
2019-05-19T13:30:26.671Z,101035.84
2019-05-19T13:32:59.015Z,101031.64
2019-05-19T13:35:38.247Z,101024.23
2019-05-19T13:38:08.534Z,101020.67
2019-05-19T13:40:38.253Z,101030.53
2019-05-19T13:43:09.499Z,101013.86
2019-05-19T13:45:41.502Z,101011.73
2019-05-19T13:48:11.362Z,101013.27
2019-05-19T13:50:40.866Z,101004.92
2019-05-19T13:53:11.047Z,101009.47
2019-05-19T13:55:45.180Z,101013.45
2019-05-19T13:58:15.587Z,101009.83
2019-05-19T14:00:45.782Z,101006.89
2019-05-19T14:03:16.162Z,100998.27
2019-05-19T14:05:46.493Z,101000.47
2019-05-19T14:08:16.117Z,100997.98
2019-05-19T14:10:45.919Z,100998.30
2019-05-19T14:13:18.047Z,101004.93
2019-05-19T14:15:48.192Z,101004.93
2019-05-19T14:18:19.490Z,101007.18
2019-05-19T14:20:49.327Z,100997.62
2019-05-19T14:23:19.442Z,101000.17
2019-05-19T14:25:50.026Z,100997.56
2019-05-19T14:28:20.922Z,100997.23
2019-05-19T14:30:51.093Z,100995.48
2019-05-19T14:33:20.993Z,100994.59
2019-05-19T14:35:50.881Z,100991.58
2019-05-19T14:38:21.218Z,100991.70
2019-05-19T14:40:51.028Z,100981.72
2019-05-19T14:43:23.112Z,100961.11
2019-05-19T14:45:55.051Z,100978.65
2019-05-19T14:48:25.013Z,100972.68
2019-05-19T14:50:55.939Z,100970.40
2019-05-19T14:53:26.319Z,100973.30
2019-05-19T14:55:56.130Z,100977.66
2019-05-19T14:58:26.094Z,100977.09
2019-05-19T15:00:56.338Z,100978.64
2019-05-19T15:03:26.091Z,100972.66
2019-05-19T15:05:55.754Z,100965.83
2019-05-19T15:08:25.921Z,100963.23
2019-05-19T15:10:55.836Z,100962.80
2019-05-19T15:13:25.924Z,100961.39
2019-05-19T15:15:58.019Z,100963.38
2019-05-19T15:18:27.707Z,100967.71
2019-05-19T15:20:57.682Z,100966.42
2019-05-19T15:23:27.527Z,100960.77
2019-05-19T15:25:57.594Z,100966.58
2019-05-19T15:28:28.738Z,100954.28
2019-05-19T15:30:58.470Z,100958.16
2019-05-19T15:33:37.872Z,100945.86
2019-05-19T15:36:01.570Z,100940.02
2019-05-19T15:38:32.036Z,100942.34
2019-05-19T15:41:02.060Z,100950.07
2019-05-19T15:43:32.125Z,100944.77
2019-05-19T15:46:02.336Z,100939.95
2019-05-19T15:48:32.423Z,100935.55
2019-05-19T15:51:02.501Z,100938.58
2019-05-19T15:53:32.491Z,100938.55
2019-05-19T15:56:03.210Z,100932.95
2019-05-19T15:58:35.191Z,100931.14
2019-05-19T16:01:05.973Z,100926.36
2019-05-19T16:03:35.765Z,100929.48
2019-05-19T16:06:06.208Z,100936.15
2019-05-19T16:08:36.275Z,100923.46
2019-05-19T16:11:06.820Z,100931.89
2019-05-19T16:13:36.658Z,100928.27
2019-05-19T16:16:06.563Z,100930.48
2019-05-19T16:18:36.473Z,100920.09
2019-05-19T16:21:06.826Z,100919.53
2019-05-19T16:23:37.796Z,100921.50
2019-05-19T16:26:08.841Z,100926.56
2019-05-19T16:28:38.693Z,100923.38
2019-05-19T16:31:08.516Z,100925.84
2019-05-19T16:33:38.676Z,100927.43
2019-05-19T16:36:08.567Z,100919.13
2019-05-19T16:38:38.378Z,100915.10
2019-05-19T16:41:08.763Z,100913.60
2019-05-19T16:43:38.545Z,100910.14
2019-05-19T16:46:11.327Z,100917.01
2019-05-19T16:48:41.704Z,100904.84
2019-05-19T16:51:12.746Z,100917.02
2019-05-19T16:53:44.215Z,100921.44
2019-05-19T16:56:14.806Z,100910.83
2019-05-19T16:58:45.910Z,100920.69
2019-05-19T17:01:19.791Z,100909.86
2019-05-19T17:03:48.897Z,100906.55
2019-05-19T17:06:21.531Z,100907.52
2019-05-19T17:08:52.718Z,100906.73
2019-05-19T17:11:23.231Z,100912.58
2019-05-19T17:13:53.782Z,100907.55
2019-05-19T17:16:24.605Z,100915.77
2019-05-19T17:18:54.272Z,100917.03
2019-05-19T17:21:27.082Z,100924.53
2019-05-19T17:23:56.929Z,100921.63
2019-05-19T17:26:27.018Z,100923.34
2019-05-19T17:29:01.091Z,100919.72
2019-05-19T17:31:31.306Z,100917.03
2019-05-19T17:34:03.902Z,100910.89
2019-05-19T17:36:33.716Z,100916.48
2019-05-19T17:39:06.420Z,100919.09
2019-05-19T17:41:36.164Z,100915.07
2019-05-19T17:44:06.324Z,100913.66
2019-05-19T17:46:38.226Z,100915.88
2019-05-19T17:49:07.881Z,100920.52
2019-05-19T17:51:37.638Z,100920.81
2019-05-19T17:54:08.404Z,100912.47
2019-05-19T17:56:40.772Z,100910.09
2019-05-19T17:59:16.473Z,100906.73
2019-05-19T18:01:44.393Z,100915.48
2019-05-19T18:04:14.386Z,100916.30
2019-05-19T18:06:44.171Z,100914.47
2019-05-19T18:09:14.123Z,100914.77
2019-05-19T18:11:43.625Z,100916.66
2019-05-19T18:14:13.338Z,100918.29
2019-05-19T18:16:43.333Z,100917.12
2019-05-19T18:19:14.565Z,100912.47
2019-05-19T18:21:45.533Z,100919.08
2019-05-19T18:24:15.160Z,100920.65
2019-05-19T18:26:45.092Z,100920.09
2019-05-19T18:29:15.139Z,100924.03
2019-05-19T18:31:45.142Z,100929.84
2019-05-19T18:34:15.069Z,100927.81
2019-05-19T18:36:44.836Z,100927.41
2019-05-19T18:39:14.909Z,100929.67
2019-05-19T18:41:46.725Z,100932.90
2019-05-19T18:44:16.706Z,100927.69
2019-05-19T18:46:46.493Z,100931.78
2019-05-19T18:49:16.826Z,100935.63
2019-05-19T18:51:48.688Z,100937.10
2019-05-19T18:54:18.392Z,100948.73
2019-05-19T18:56:51.027Z,100951.59
2019-05-19T18:59:19.705Z,100950.80
2019-05-19T19:01:50.938Z,100960.45
2019-05-19T19:04:20.949Z,100958.07
2019-05-19T19:06:50.674Z,100961.43
2019-05-19T19:09:20.865Z,100958.09
2019-05-19T19:11:50.849Z,100971.95
2019-05-19T19:14:21.332Z,100975.64
2019-05-19T19:16:51.208Z,100981.75
2019-05-19T19:19:21.240Z,100983.42
2019-05-19T19:22:05.070Z,100986.48
2019-05-19T19:24:38.721Z,100987.86
2019-05-19T19:27:08.673Z,100989.45
2019-05-19T19:29:38.721Z,100992.33
2019-05-19T19:32:11.006Z,100992.53
2019-05-19T19:34:41.123Z,100992.63
2019-05-19T19:37:10.901Z,100989.48
2019-05-19T19:39:40.855Z,100990.48
2019-05-19T19:42:10.692Z,100993.27
2019-05-19T19:44:41.261Z,100994.73
2019-05-19T19:47:11.049Z,100995.85
2019-05-19T19:49:40.830Z,100995.66
2019-05-19T19:52:10.608Z,100992.16
2019-05-19T19:54:40.699Z,101003.01
2019-05-19T19:57:10.391Z,101006.87
2019-05-19T19:59:40.412Z,101004.20
2019-05-19T20:02:10.399Z,101006.98
2019-05-19T20:04:40.013Z,101014.33
2019-05-19T20:07:09.518Z,101012.98
2019-05-19T20:09:39.399Z,101010.66
2019-05-19T20:12:09.338Z,101018.34
2019-05-19T20:14:42.347Z,101020.05
2019-05-19T20:17:12.370Z,101017.98
2019-05-19T20:19:42.069Z,101017.15
2019-05-19T20:22:12.472Z,101023.45
2019-05-19T20:24:42.076Z,101020.44
2019-05-19T20:27:11.894Z,101014.25
2019-05-19T20:29:42.047Z,101018.30
2019-05-19T20:32:14.146Z,101029.92
2019-05-19T20:34:45.412Z,101021.08
2019-05-19T20:37:15.385Z,101020.53
2019-05-19T20:39:45.200Z,101021.66
2019-05-19T20:42:17.735Z,101023.89
2019-05-19T20:44:47.834Z,101025.33
2019-05-19T20:47:17.542Z,101029.16
2019-05-19T20:49:47.411Z,101033.24
2019-05-19T20:52:17.134Z,101030.33
2019-05-19T20:54:46.769Z,101035.35
2019-05-19T20:57:17.516Z,101030.54
2019-05-19T20:59:47.267Z,101036.33
2019-05-19T21:02:17.791Z,101031.97
2019-05-19T21:04:47.617Z,101029.94
2019-05-19T21:07:17.309Z,101033.58
2019-05-19T21:09:46.988Z,101034.53
2019-05-19T21:12:16.983Z,101031.61
2019-05-19T21:14:46.990Z,101034.30
2019-05-19T21:17:16.743Z,101029.95
2019-05-19T21:19:46.541Z,101033.47
2019-05-19T21:22:16.335Z,101032.30
2019-05-19T21:24:46.327Z,101028.27
2019-05-19T21:27:15.951Z,101019.66
2019-05-19T21:29:45.692Z,101021.52
2019-05-19T21:32:15.145Z,101027.75
2019-05-19T21:34:44.767Z,101019.98
2019-05-19T21:37:14.764Z,101017.25
2019-05-19T21:39:44.809Z,101021.94
2019-05-19T21:42:14.653Z,101023.63
2019-05-19T21:44:44.722Z,101021.70
2019-05-19T21:47:14.280Z,101021.42
2019-05-19T21:49:44.011Z,101019.98
2019-05-19T21:52:13.724Z,101017.70
2019-05-19T21:54:43.338Z,101019.37
2019-05-19T21:57:12.792Z,101021.19
2019-05-19T21:59:42.432Z,101023.47
2019-05-19T22:02:11.994Z,101021.70
2019-05-19T22:04:41.618Z,101016.51
2019-05-19T22:07:15.492Z,101015.79
2019-05-19T22:09:45.157Z,101011.98
2019-05-19T22:12:14.983Z,101013.74
2019-05-19T22:14:44.830Z,101015.63
2019-05-19T22:17:14.440Z,101011.62
2019-05-19T22:19:43.864Z,101012.24
2019-05-19T22:22:13.781Z,101018.84
2019-05-19T22:24:43.495Z,101014.36
2019-05-19T22:27:13.243Z,101008.53
2019-05-19T22:29:42.919Z,101011.88
2019-05-19T22:32:12.501Z,101017.28
2019-05-19T22:34:42.219Z,101016.58
2019-05-19T22:37:11.924Z,101010.14
2019-05-19T22:39:41.470Z,101013.11
2019-05-19T22:42:10.965Z,101007.84
2019-05-19T22:44:40.636Z,101009.69
2019-05-19T22:47:10.451Z,101010.66
2019-05-19T22:49:40.067Z,101008.09
2019-05-19T22:52:09.894Z,101004.48
2019-05-19T22:54:39.571Z,101004.39
2019-05-19T22:57:09.057Z,101005.94
2019-05-19T22:59:38.812Z,101005.09
2019-05-19T23:02:09.327Z,101005.61
2019-05-19T23:04:39.050Z,101006.27
2019-05-19T23:07:08.572Z,101004.43
2019-05-19T23:09:38.445Z,101008.21
2019-05-19T23:12:08.048Z,100990.77
2019-05-19T23:14:37.539Z,100991.77
2019-05-19T23:17:07.171Z,100989.31
2019-05-19T23:19:36.680Z,100985.32
2019-05-19T23:22:06.657Z,100989.31
2019-05-19T23:24:36.424Z,100986.22
2019-05-19T23:27:05.957Z,100985.02
2019-05-19T23:29:35.525Z,100981.56
2019-05-19T23:32:07.422Z,100979.27
2019-05-19T23:34:36.831Z,100976.15
2019-05-19T23:37:06.799Z,100976.52
2019-05-19T23:39:36.629Z,100975.27
2019-05-19T23:42:06.203Z,100974.37
2019-05-19T23:44:35.840Z,100972.61
2019-05-19T23:47:05.383Z,100974.67
2019-05-19T23:49:35.603Z,100967.92
2019-05-19T23:52:05.356Z,100968.02
2019-05-19T23:54:34.861Z,100966.17
2019-05-19T23:57:04.593Z,100967.08
2019-05-19T23:59:34.257Z,100968.74
